Kissho — JD3124 — position and weather

sailwx.info

Track history (hours):
 
Tides and Currents Weather Stations Pressure Air Temp Water Temp Dewpoint Dewpoint Depression Visibility Wind Speed Wind Dir Waves Ship Positions

Kissho

Last reported at 2017-Jun-06 00:03 UTC. Time now 2017-Jun-24 10:33 UTC.
Position N 34°36' E 135°03'.
Warning: this ship's position is 18 days out of date.

Length 30 m.

Type: Tug. MMSI: 431002115.

Date/timePositionNaut miles runAvg speedWind from/ knotsBaromVisibWave heightAir tempDewpointWater temp
2017-Jun-06 00:03N 34°36' E 135°03'0 9.1
2017-Jun-06 00:00N 34°36' E 135°04'5 9.5
2017-Jun-05 23:30N 34°37' E 135°10'6 9.8
2017-Jun-05 22:56N 34°38' E 135°16'4 9.8
2017-Jun-05 22:30N 34°39' E 135°21'  
2017-Jun-01 00:58N 34°40' E 135°23'2 3.5
2017-Jun-01 00:25N 34°41' E 135°20'0 0.0
2017-May-31 23:43N 34°41' E 135°20'1 3.7
2017-May-31 23:30N 34°41' E 135°21'4 7.2
2017-May-31 22:57N 34°39' E 135°26'10 0.4
2017-May-30 21:06N 34°31' E 135°20'4 4.2
2017-May-30 20:08N 34°28' E 135°16'  
2017-May-28 04:33N 35°06' E 139°40'1 6.2
2017-May-28 04:26N 35°06' E 139°40'3 6.1
2017-May-28 04:00N 35°08' E 139°43'3 6.0
2017-May-28 03:29N 35°11' E 139°45'3 6.2
2017-May-28 03:00N 35°13' E 139°46'4 6.3
2017-May-28 02:19N 35°17' E 139°44'3 6.0
2017-May-28 01:49N 35°20' E 139°42'2 6.1
2017-May-28 01:29N 35°22' E 139°42'3 6.4
2017-May-28 01:00N 35°25' E 139°43'3 6.5
2017-May-28 00:30N 35°27' E 139°47'3 6.5
2017-May-28 00:00N 35°29' E 139°50'  
Track history (hours):
 
Tides and Currents Weather Stations Pressure Air Temp Water Temp Dewpoint Dewpoint Depression Visibility Wind Speed Wind Dir Waves Ship Positions

Kissho

Last reported at 2017-Jun-06 00:03 UTC. Time now 2017-Jun-24 10:33 UTC.
Position N 34°36' E 135°03'.
Warning: this ship's position is 18 days out of date.

Length 30 m.

Type: Tug. MMSI: 431002115.

Date/timePositionNaut miles runAvg speedWind from/ knotsBaromVisibWave heightAir tempDewpointWater temp
2017-Jun-06 00:03N 34°36' E 135°03'0 9.1
2017-Jun-06 00:00N 34°36' E 135°04'5 9.5
2017-Jun-05 23:30N 34°37' E 135°10'6 9.8
2017-Jun-05 22:56N 34°38' E 135°16'4 9.8
2017-Jun-05 22:30N 34°39' E 135°21'  
2017-Jun-01 00:58N 34°40' E 135°23'2 3.5
2017-Jun-01 00:25N 34°41' E 135°20'0 0.0
2017-May-31 23:43N 34°41' E 135°20'1 3.7
2017-May-31 23:30N 34°41' E 135°21'4 7.2
2017-May-31 22:57N 34°39' E 135°26'10 0.4
2017-May-30 21:06N 34°31' E 135°20'4 4.2
2017-May-30 20:08N 34°28' E 135°16'  
2017-May-28 04:33N 35°06' E 139°40'1 6.2
2017-May-28 04:26N 35°06' E 139°40'3 6.1
2017-May-28 04:00N 35°08' E 139°43'3 6.0
2017-May-28 03:29N 35°11' E 139°45'3 6.2
2017-May-28 03:00N 35°13' E 139°46'4 6.3
2017-May-28 02:19N 35°17' E 139°44'3 6.0
2017-May-28 01:49N 35°20' E 139°42'2 6.1
2017-May-28 01:29N 35°22' E 139°42'3 6.4
2017-May-28 01:00N 35°25' E 139°43'3 6.5
2017-May-28 00:30N 35°27' E 139°47'3 6.5
2017-May-28 00:00N 35°29' E 139°50'  

Dump ship's entire track history